TimeCDT,TemperatureF,Dew PointF,Humidity,Sea Level PressureIn,VisibilityMPH,Wind Direction,Wind SpeedMPH,Gust SpeedMPH,PrecipitationIn,Events,Conditions,WindDirDegrees,DateUTC
12:15 AM,40.1,33.1,76,29.78,10.0,SSE,11.5,-,N/A,,Clear,150,2013-03-23 05:15:00
12:35 AM,39.7,33.4,78,29.76,10.0,SE,10.4,-,N/A,,Clear,140,2013-03-23 05:35:00
12:55 AM,39.7,34.2,80,29.77,10.0,SE,8.1,-,N/A,,Clear,130,2013-03-23 05:55:00
1:15 AM,39.0,33.6,81,29.78,10.0,SE,6.9,-,N/A,,Clear,140,2013-03-23 06:15:00
1:35 AM,37.4,32.9,84,29.77,10.0,SSE,9.2,-,N/A,,Clear,160,2013-03-23 06:35:00
1:55 AM,37.4,33.3,85,29.77,10.0,SSE,5.8,-,N/A,,Clear,160,2013-03-23 06:55:00
2:15 AM,37.0,33.8,88,29.76,10.0,SSE,4.6,-,N/A,,Clear,150,2013-03-23 07:15:00
2:35 AM,37.2,34.0,88,29.76,10.0,SSE,10.4,-,N/A,,Clear,160,2013-03-23 07:35:00
2:55 AM,36.0,33.3,90,29.76,7.0,South,10.4,-,N/A,,Clear,180,2013-03-23 07:55:00
3:15 AM,36.0,33.3,90,29.76,7.0,South,6.9,-,N/A,,Clear,170,2013-03-23 08:15:00
3:35 AM,36.0,33.4,91,29.76,7.0,South,6.9,-,N/A,,Clear,190,2013-03-23 08:35:00
3:55 AM,34.9,32.5,91,29.75,7.0,South,5.8,-,N/A,,Clear,190,2013-03-23 08:55:00
4:15 AM,34.7,32.5,92,29.73,7.0,South,4.6,-,N/A,,Clear,190,2013-03-23 09:15:00
4:35 AM,35.1,32.9,92,29.73,7.0,SSW,9.2,-,N/A,,Clear,200,2013-03-23 09:35:00
4:55 AM,34.9,32.9,92,29.72,7.0,SSW,6.9,-,N/A,,Clear,200,2013-03-23 09:55:00
5:15 AM,34.7,32.7,92,29.71,7.0,South,9.2,-,N/A,,Clear,190,2013-03-23 10:15:00
5:35 AM,36.0,34.0,93,29.70,5.0,South,9.2,-,N/A,,Clear,190,2013-03-23 10:35:00
5:55 AM,35.8,33.6,92,29.72,5.0,SW,5.8,-,N/A,,Clear,230,2013-03-23 10:55:00
6:15 AM,35.8,33.8,92,29.71,5.0,SW,6.9,-,N/A,,Clear,220,2013-03-23 11:15:00
6:35 AM,37.4,35.4,93,29.71,5.0,WSW,6.9,-,N/A,,Clear,240,2013-03-23 11:35:00
6:55 AM,36.7,34.5,92,29.72,5.0,WNW,8.1,-,N/A,,Scattered Clouds,300,2013-03-23 11:55:00
7:15 AM,36.1,34.0,92,29.72,5.0,West,4.6,-,N/A,,Clear,260,2013-03-23 12:15:00
7:35 AM,34.7,32.5,92,29.73,5.0,WSW,4.6,-,N/A,,Clear,250,2013-03-23 12:35:00
7:55 AM,34.7,32.9,93,29.73,4.0,SW,4.6,-,N/A,,Clear,220,2013-03-23 12:55:00
8:15 AM,34.7,33.1,94,29.74,4.0,WSW,6.9,-,N/A,,Clear,240,2013-03-23 13:15:00
8:35 AM,36.9,35.1,93,29.73,5.0,SW,4.6,-,N/A,,Clear,230,2013-03-23 13:35:00
8:55 AM,39.7,37.4,91,29.74,7.0,SW,9.2,-,N/A,,Clear,230,2013-03-23 13:55:00
9:15 AM,41.0,37.4,87,29.74,10.0,WSW,6.9,-,N/A,,Clear,240,2013-03-23 14:15:00
9:35 AM,43.7,38.1,81,29.75,10.0,WSW,8.1,-,N/A,,Mostly Cloudy,240,2013-03-23 14:35:00
9:55 AM,47.5,40.1,76,29.75,10.0,SW,8.1,-,N/A,,Mostly Cloudy,230,2013-03-23 14:55:00
10:15 AM,50.0,40.1,69,29.74,10.0,SW,10.4,-,N/A,,Mostly Cloudy,230,2013-03-23 15:15:00
10:35 AM,51.1,40.3,67,29.73,10.0,SW,11.5,-,N/A,,Mostly Cloudy,220,2013-03-23 15:35:00
10:55 AM,54.9,42.3,63,29.74,10.0,WSW,15.0,-,N/A,,Mostly Cloudy,240,2013-03-23 15:55:00
11:15 AM,54.9,41.2,60,29.75,10.0,West,9.2,-,N/A,,Scattered Clouds,280,2013-03-23 16:15:00
11:35 AM,55.0,40.6,58,29.75,10.0,NNW,11.5,-,N/A,,Clear,330,2013-03-23 16:35:00
11:55 AM,55.0,40.1,57,29.74,10.0,NW,4.6,-,N/A,,Clear,310,2013-03-23 16:55:00
12:15 PM,57.0,41.4,56,29.72,10.0,Calm,Calm,-,N/A,,Clear,0,2013-03-23 17:15:00
12:35 PM,57.4,40.6,54,29.72,10.0,NW,10.4,-,N/A,,Clear,310,2013-03-23 17:35:00
12:55 PM,59.9,39.6,47,29.71,10.0,NW,9.2,-,N/A,,Clear,310,2013-03-23 17:55:00
1:15 PM,60.3,38.3,44,29.70,10.0,WNW,10.4,-,N/A,,Clear,300,2013-03-23 18:15:00
1:35 PM,62.2,35.4,37,29.68,10.0,WNW,8.1,-,N/A,,Clear,290,2013-03-23 18:35:00
1:55 PM,64.6,34.3,32,29.66,10.0,NNW,6.9,-,N/A,,Clear,330,2013-03-23 18:55:00
2:15 PM,66.0,33.1,29,29.65,10.0,NW,8.1,-,N/A,,Clear,310,2013-03-23 19:15:00
2:35 PM,70.0,11.5,10,29.64,10.0,West,18.4,29.9,N/A,,Clear,280,2013-03-23 19:35:00
2:55 PM,70.0,6.8,9,29.63,5.0,West,24.2,35.7,N/A,,Haze,260,2013-03-23 19:55:00
3:15 PM,70.0,7.9,9,29.61,10.0,West,26.5,34.5,N/A,,Clear,270,2013-03-23 20:15:00
3:35 PM,70.7,8.2,9,29.60,10.0,WSW,21.9,32.2,N/A,,Clear,250,2013-03-23 20:35:00
3:55 PM,71.2,-2.7,5,29.60,7.0,West,28.8,33.4,N/A,,Mostly Cloudy,280,2013-03-23 20:55:00
4:15 PM,70.2,-17.1,4,29.59,3.0,West,27.6,41.4,N/A,,Haze,270,2013-03-23 21:15:00
4:35 PM,70.0,-15.0,4,29.59,4.0,West,29.9,36.8,N/A,,Haze,270,2013-03-23 21:35:00
4:55 PM,70.0,-13.7,4,29.58,4.0,West,25.3,29.9,N/A,,Haze,280,2013-03-23 21:55:00
5:15 PM,70.0,-13.2,4,29.58,4.0,West,27.6,36.8,N/A,,Haze,280,2013-03-23 22:15:00
5:35 PM,70.0,-14.8,4,29.59,4.0,West,25.3,40.3,N/A,,Haze,280,2013-03-23 22:35:00
5:55 PM,70.0,-13.7,4,29.59,3.0,West,32.2,42.6,N/A,,Haze,270,2013-03-23 22:55:00
6:15 PM,70.0,-14.3,4,29.62,1.8,NW,43.7,54.1,N/A,,Haze,320,2013-03-23 23:15:00
6:35 PM,57.4,12.9,17,29.68,1.2,NNW,36.8,44.9,N/A,,Haze,330,2013-03-23 23:35:00
6:55 PM,54.9,19.0,25,29.71,2.0,NNW,33.4,41.4,N/A,,Haze,330,2013-03-23 23:55:00
7:15 PM,51.3,29.3,43,29.75,2.5,North,31.1,43.7,N/A,,Haze,350,2013-03-24 00:15:00
7:35 PM,42.6,32.9,68,29.79,2.0,North,32.2,46.0,N/A,,Haze,350,2013-03-24 00:35:00
7:55 PM,40.3,32.7,74,29.81,4.0,North,32.2,43.7,N/A,,Haze,350,2013-03-24 00:55:00
8:15 PM,39.7,31.8,73,29.86,10.0,North,31.1,39.1,N/A,,Mostly Cloudy,350,2013-03-24 01:15:00
8:35 PM,39.7,30.7,70,29.89,5.0,North,33.4,43.7,N/A,,Haze,350,2013-03-24 01:35:00
8:55 PM,37.4,28.2,69,29.90,10.0,North,34.5,42.6,N/A,,Mostly Cloudy,360,2013-03-24 01:55:00
9:15 PM,36.7,27.0,68,29.92,10.0,North,27.6,41.4,N/A,,Scattered Clouds,360,2013-03-24 02:15:00
9:35 PM,34.7,26.4,72,29.96,10.0,North,29.9,36.8,N/A,,Mostly Cloudy,350,2013-03-24 02:35:00
9:55 PM,34.7,25.7,70,29.98,10.0,North,36.8,44.9,N/A,,Mostly Cloudy,350,2013-03-24 02:55:00
10:15 PM,34.0,24.3,68,29.99,7.0,North,25.3,41.4,N/A,,Scattered Clouds,360,2013-03-24 03:15:00
10:35 PM,32.0,23.0,69,30.01,7.0,North,29.9,39.1,N/A,,Mostly Cloudy,350,2013-03-24 03:35:00
10:55 PM,30.0,21.2,70,30.01,7.0,North,28.8,44.9,N/A,,Scattered Clouds,350,2013-03-24 03:55:00
11:15 PM,30.0,20.8,69,30.02,10.0,North,26.5,32.2,N/A,,Clear,350,2013-03-24 04:15:00
11:35 PM,30.0,20.3,67,30.04,10.0,North,29.9,42.6,N/A,,Clear,360,2013-03-24 04:35:00
11:55 PM,27.5,18.3,68,30.04,10.0,North,25.3,34.5,N/A,,Clear,360,2013-03-24 04:55:00